createdAt,value
2022-12-27T00:00:53.324Z,1.98
2022-12-27T00:03:20.660Z,1.40
2022-12-27T00:05:48.508Z,1.58
2022-12-27T00:08:15.955Z,1.60
2022-12-27T00:10:42.807Z,1.88
2022-12-27T00:13:09.598Z,2.30
2022-12-27T00:15:37.025Z,1.38
2022-12-27T00:18:03.913Z,1.60
2022-12-27T00:20:30.715Z,1.80
2022-12-27T00:23:01.273Z,1.85
2022-12-27T00:25:28.177Z,1.42
2022-12-27T00:27:55.414Z,1.67
2022-12-27T00:30:22.232Z,1.50
2022-12-27T00:32:49.022Z,1.73
2022-12-27T00:35:16.067Z,1.90
2022-12-27T00:37:42.829Z,2.13
2022-12-27T00:40:10.969Z,2.13
2022-12-27T00:42:37.798Z,1.90
2022-12-27T00:45:05.943Z,2.58
2022-12-27T00:47:32.800Z,2.35
2022-12-27T00:49:59.591Z,2.15
2022-12-27T00:52:26.503Z,2.20
2022-12-27T00:54:53.304Z,1.73
2022-12-27T00:57:20.057Z,2.10
2022-12-27T00:59:47.917Z,2.00
2022-12-27T01:02:14.843Z,2.80
2022-12-27T01:04:41.842Z,2.80
2022-12-27T01:07:08.669Z,3.00
2022-12-27T01:09:35.564Z,2.90
2022-12-27T01:12:02.541Z,3.05
2022-12-27T01:14:29.348Z,3.22
2022-12-27T01:16:56.234Z,2.97
2022-12-27T01:19:23.012Z,2.53
2022-12-27T01:21:49.856Z,1.85
2022-12-27T01:24:16.956Z,2.50
2022-12-27T01:26:43.765Z,2.40
2022-12-27T01:29:13.133Z,2.60
2022-12-27T01:31:40.353Z,2.15
2022-12-27T01:34:07.236Z,2.25
2022-12-27T01:36:34.421Z,2.13
2022-12-27T01:39:01.536Z,1.90
2022-12-27T01:41:55.398Z,2.20
2022-12-27T01:44:40.960Z,2.22
2022-12-27T01:47:35.204Z,2.13
2022-12-27T01:50:39.656Z,1.92
2022-12-27T01:53:21.144Z,2.47
2022-12-27T01:56:19.655Z,1.80
2022-12-27T01:59:01.495Z,1.63
2022-12-27T02:01:36.452Z,1.63
2022-12-27T02:04:15.302Z,2.10
2022-12-27T02:06:42.948Z,1.70
2022-12-27T02:09:14.799Z,1.92
2022-12-27T02:11:53.079Z,1.92
2022-12-27T02:14:35.811Z,1.90
2022-12-27T02:17:08.862Z,2.03
2022-12-27T02:19:41.681Z,2.50
2022-12-27T02:22:53.230Z,1.83
2022-12-27T02:25:35.092Z,2.33
2022-12-27T02:28:29.781Z,1.90
2022-12-27T02:31:07.352Z,1.63
2022-12-27T02:33:44.015Z,1.73
2022-12-27T02:36:18.289Z,2.00
2022-12-27T02:38:51.646Z,1.88
2022-12-27T02:41:38.390Z,2.05
2022-12-27T02:44:23.717Z,1.80
2022-12-27T02:47:11.149Z,2.03
2022-12-27T02:50:02.546Z,2.45
2022-12-27T02:53:07.240Z,2.15
2022-12-27T02:56:09.011Z,1.73
2022-12-27T02:59:08.012Z,2.30
2022-12-27T03:02:37.687Z,1.77
2022-12-27T03:06:08.902Z,1.90
2022-12-27T03:08:49.933Z,2.28
2022-12-27T03:11:35.896Z,1.50
2022-12-27T03:14:46.844Z,1.98
2022-12-27T03:17:32.929Z,2.78
2022-12-27T03:20:26.164Z,2.25
2022-12-27T03:23:14.334Z,2.20
2022-12-27T03:25:43.856Z,1.88
2022-12-27T03:28:37.645Z,2.22
2022-12-27T03:31:31.387Z,2.05
2022-12-27T03:34:24.793Z,2.10
2022-12-27T03:37:12.953Z,1.95
2022-12-27T03:39:50.532Z,1.58
2022-12-27T03:42:43.743Z,2.00
2022-12-27T03:45:11.354Z,2.38
2022-12-27T03:47:49.439Z,1.88
2022-12-27T03:50:45.157Z,2.10
2022-12-27T03:53:21.301Z,1.75
2022-12-27T03:55:48.943Z,1.95
2022-12-27T03:58:16.345Z,1.58
2022-12-27T04:00:43.163Z,1.75
2022-12-27T04:03:09.978Z,2.75
2022-12-27T04:05:36.758Z,2.03
2022-12-27T04:08:22.091Z,2.08
2022-12-27T04:11:07.675Z,1.60
2022-12-27T04:13:53.226Z,1.33
2022-12-27T04:16:39.056Z,1.65
2022-12-27T04:19:24.550Z,1.85
2022-12-27T04:22:09.661Z,1.73
2022-12-27T04:27:40.736Z,1.92
2022-12-27T04:30:27.342Z,1.77
2022-12-27T04:33:12.606Z,1.90
2022-12-27T04:35:39.459Z,2.65
2022-12-27T04:38:06.282Z,1.92
2022-12-27T04:40:51.531Z,1.90
2022-12-27T04:43:37.019Z,1.42
2022-12-27T04:46:22.603Z,1.80
2022-12-27T04:49:07.837Z,1.48
2022-12-27T04:51:53.235Z,2.15
2022-12-27T04:54:40.767Z,2.08
2022-12-27T04:57:07.746Z,2.03
2022-12-27T04:59:53.012Z,2.45
2022-12-27T05:02:20.362Z,1.80
2022-12-27T05:04:48.856Z,1.90
2022-12-27T05:07:34.752Z,1.80
2022-12-27T05:10:23.576Z,1.98
2022-12-27T05:13:08.882Z,3.03
2022-12-27T05:15:35.681Z,1.90
2022-12-27T05:18:02.777Z,2.10
2022-12-27T05:20:29.813Z,1.50
2022-12-27T05:23:15.124Z,2.03
2022-12-27T05:25:44.165Z,1.50
2022-12-27T05:28:12.899Z,2.20
2022-12-27T05:30:43.765Z,2.15
2022-12-27T05:33:11.156Z,2.22
2022-12-27T05:35:38.897Z,2.33
2022-12-27T05:38:06.354Z,1.80
2022-12-27T05:40:33.615Z,2.22
2022-12-27T05:43:02.317Z,2.42
2022-12-27T05:45:30.298Z,2.50
2022-12-27T05:47:58.949Z,2.42
2022-12-27T05:50:26.547Z,2.35
2022-12-27T05:52:53.344Z,2.63
2022-12-27T05:55:20.148Z,2.25
2022-12-27T05:57:46.936Z,2.78
2022-12-27T06:00:14.715Z,3.60
2022-12-27T06:02:42.847Z,3.22
2022-12-27T06:05:10.746Z,3.78
2022-12-27T06:07:39.454Z,3.70
2022-12-27T06:10:08.493Z,4.57
2022-12-27T06:12:35.876Z,4.82
2022-12-27T06:15:04.396Z,4.32
2022-12-27T06:17:31.219Z,3.70
2022-12-27T06:19:58.161Z,3.55
2022-12-27T06:22:25.741Z,2.92
2022-12-27T06:24:52.630Z,2.97
2022-12-27T06:27:19.409Z,2.80
2022-12-27T06:29:46.607Z,2.83
2022-12-27T06:32:13.641Z,2.50
2022-12-27T06:34:40.473Z,2.75
2022-12-27T06:37:07.281Z,2.30
2022-12-27T06:39:34.065Z,2.70
2022-12-27T06:42:00.992Z,2.80
2022-12-27T06:44:27.861Z,2.50
2022-12-27T06:46:54.654Z,2.45
2022-12-27T06:49:21.461Z,2.83
2022-12-27T06:51:52.564Z,2.70
2022-12-27T06:54:22.683Z,2.78
2022-12-27T06:56:49.545Z,2.78
2022-12-27T06:59:16.346Z,2.95
2022-12-27T07:01:43.373Z,2.95
2022-12-27T07:04:10.938Z,2.88
2022-12-27T07:06:38.376Z,3.08
2022-12-27T07:09:06.392Z,3.40
2022-12-27T07:11:35.448Z,3.95
2022-12-27T07:14:03.536Z,4.28
2022-12-27T07:16:31.178Z,4.28
2022-12-27T07:18:59.653Z,4.82
2022-12-27T07:21:29.610Z,5.78
2022-12-27T07:23:57.276Z,5.75
2022-12-27T07:26:28.717Z,6.32
2022-12-27T07:28:58.764Z,6.93
2022-12-27T07:31:29.791Z,6.53
2022-12-27T07:33:58.131Z,7.35
2022-12-27T07:36:28.960Z,7.47
2022-12-27T07:38:56.052Z,8.65
2022-12-27T07:41:23.315Z,9.48
2022-12-27T07:43:50.210Z,10.10
2022-12-27T07:46:20.705Z,10.07
2022-12-27T07:48:48.190Z,9.85
2022-12-27T07:51:17.902Z,10.68
2022-12-27T07:53:45.132Z,10.95
2022-12-27T07:56:26.092Z,12.00
2022-12-27T07:58:56.708Z,11.88
2022-12-27T08:01:26.463Z,11.77
2022-12-27T08:03:54.059Z,11.45
2022-12-27T08:06:32.091Z,12.77
2022-12-27T08:09:03.956Z,11.45
2022-12-27T08:11:31.404Z,12.68
2022-12-27T08:13:58.195Z,12.38
2022-12-27T08:16:26.548Z,13.50
2022-12-27T08:18:53.826Z,13.23
2022-12-27T08:21:20.769Z,13.18
2022-12-27T08:23:47.677Z,13.18
2022-12-27T08:26:14.568Z,13.68
2022-12-27T08:28:41.728Z,16.35
2022-12-27T08:31:11.314Z,13.65
2022-12-27T08:33:39.496Z,13.65
2022-12-27T08:36:44.702Z,13.98
2022-12-27T08:38:56.121Z,15.13
2022-12-27T08:41:23.662Z,13.68
2022-12-27T08:43:50.815Z,13.10
2022-12-27T08:46:19.879Z,13.57
2022-12-27T08:48:49.018Z,13.25
2022-12-27T08:51:23.440Z,11.93
2022-12-27T08:53:57.547Z,12.25
2022-12-27T08:56:25.088Z,12.13
2022-12-27T08:58:52.149Z,11.23
2022-12-27T09:01:19.136Z,10.90
2022-12-27T09:03:46.038Z,11.05
2022-12-27T09:06:20.508Z,9.63
2022-12-27T09:08:49.185Z,9.93
2022-12-27T09:11:21.621Z,9.45
2022-12-27T09:13:49.092Z,8.43
2022-12-27T09:16:24.358Z,7.82
2022-12-27T09:18:53.830Z,7.53
2022-12-27T09:21:23.597Z,7.28
2022-12-27T09:23:52.212Z,7.85
2022-12-27T09:26:26.571Z,6.45
2022-12-27T09:28:54.427Z,6.60
2022-12-27T09:31:22.900Z,6.45
2022-12-27T09:33:50.043Z,5.38
2022-12-27T09:36:20.730Z,4.55
2022-12-27T09:38:48.755Z,4.82
2022-12-27T09:42:45.853Z,4.55
2022-12-27T09:44:46.480Z,4.20
2022-12-27T09:47:22.543Z,4.22
2022-12-27T09:49:54.681Z,4.50
2022-12-27T09:52:35.586Z,3.92
2022-12-27T09:55:16.500Z,4.47
2022-12-27T09:57:45.666Z,4.00
2022-12-27T10:00:34.262Z,4.55
2022-12-27T10:03:06.217Z,4.47
2022-12-27T10:05:37.358Z,3.53
2022-12-27T10:08:55.061Z,3.88
2022-12-27T10:11:40.221Z,4.38
2022-12-27T10:14:13.131Z,4.50
2022-12-27T10:17:07.856Z,4.18
2022-12-27T10:19:46.435Z,4.20
2022-12-27T10:22:50.006Z,3.58
2022-12-27T10:25:22.136Z,3.63
2022-12-27T10:27:51.595Z,3.90
2022-12-27T10:30:21.107Z,4.03
2022-12-27T10:32:49.032Z,3.90
2022-12-27T10:35:19.415Z,3.47
2022-12-27T10:37:49.086Z,3.42
2022-12-27T10:40:27.674Z,3.03
2022-12-27T10:43:21.801Z,3.53
2022-12-27T10:45:49.212Z,3.45
2022-12-27T10:48:28.892Z,2.97
2022-12-27T10:51:07.254Z,3.50
2022-12-27T10:53:36.572Z,3.47
2022-12-27T10:56:28.035Z,3.50
2022-12-27T10:59:12.021Z,2.70
2022-12-27T11:01:39.469Z,2.70
2022-12-27T11:04:21.352Z,3.08
2022-12-27T11:07:08.218Z,3.25
2022-12-27T11:09:46.450Z,3.30
2022-12-27T11:12:24.381Z,3.30
2022-12-27T11:15:20.326Z,3.15
2022-12-27T11:17:51.041Z,2.90
2022-12-27T11:20:22.683Z,3.38
2022-12-27T11:22:57.113Z,2.80
2022-12-27T11:25:27.842Z,2.40
2022-12-27T11:28:14.485Z,3.20
2022-12-27T11:30:42.057Z,3.00
2022-12-27T11:33:37.608Z,2.35
2022-12-27T11:36:06.679Z,2.38
2022-12-27T11:38:37.152Z,2.80
2022-12-27T11:41:26.088Z,3.00
2022-12-27T11:44:00.809Z,2.80
2022-12-27T11:46:57.075Z,2.55
2022-12-27T11:49:36.771Z,2.78
2022-12-27T11:52:03.685Z,2.90
2022-12-27T11:55:12.762Z,3.08
2022-12-27T11:58:13.674Z,3.13
2022-12-27T12:01:28.780Z,3.05
2022-12-27T12:04:29.649Z,2.45
2022-12-27T12:07:21.259Z,2.28
2022-12-27T12:10:39.009Z,2.45
2022-12-27T12:13:17.674Z,2.58
2022-12-27T12:16:15.844Z,2.67
2022-12-27T12:19:01.471Z,2.88
2022-12-27T12:22:30.195Z,2.47
2022-12-27T12:26:06.701Z,2.42
2022-12-27T12:29:30.430Z,2.53
2022-12-27T12:32:51.876Z,2.55
2022-12-27T12:36:12.394Z,2.80
2022-12-27T12:38:52.972Z,3.00
2022-12-27T12:41:31.785Z,3.28
2022-12-27T12:44:37.970Z,2.53
2022-12-27T12:47:44.810Z,2.35
2022-12-27T12:50:57.962Z,2.42
2022-12-27T12:53:54.687Z,2.50
2022-12-27T12:56:50.111Z,2.45
2022-12-27T13:00:09.871Z,2.90
2022-12-27T13:03:18.224Z,2.53
2022-12-27T13:06:18.342Z,2.47
2022-12-27T13:08:57.790Z,2.42
2022-12-27T13:11:43.825Z,2.58
2022-12-27T13:15:06.996Z,3.22
2022-12-27T13:17:36.916Z,2.70
2022-12-27T13:20:22.276Z,2.40
2022-12-27T13:25:48.079Z,2.40
2022-12-27T13:29:07.161Z,2.53
2022-12-27T13:32:04.250Z,2.20
2022-12-27T13:35:07.443Z,2.10
2022-12-27T13:38:04.130Z,2.28
2022-12-27T13:41:14.627Z,1.63
2022-12-27T13:44:19.453Z,1.88
2022-12-27T13:47:16.400Z,2.25
2022-12-27T13:50:18.692Z,2.20
2022-12-27T13:53:33.285Z,2.33
2022-12-27T13:56:55.175Z,1.88
2022-12-27T14:00:02.941Z,1.42
2022-12-27T14:02:33.212Z,1.30
2022-12-27T14:05:05.858Z,1.42
2022-12-27T14:08:01.908Z,1.40
2022-12-27T14:10:40.926Z,1.42
2022-12-27T14:13:10.246Z,1.35
2022-12-27T14:15:43.036Z,1.10
2022-12-27T14:18:12.784Z,1.10
2022-12-27T14:20:56.923Z,1.38
2022-12-27T14:23:44.557Z,1.30
2022-12-27T14:26:36.180Z,1.38
2022-12-27T14:29:27.536Z,1.20
2022-12-27T14:32:34.508Z,1.40
2022-12-27T14:35:28.101Z,1.55
2022-12-27T14:38:45.864Z,1.13
2022-12-27T14:41:18.692Z,1.00
2022-12-27T14:44:45.285Z,1.30
2022-12-27T14:47:29.166Z,1.15
2022-12-27T14:50:19.717Z,1.30
2022-12-27T14:53:09.277Z,1.23
2022-12-27T14:56:12.824Z,1.50
2022-12-27T14:59:13.560Z,1.65
2022-12-27T15:02:02.034Z,1.60
2022-12-27T15:04:53.459Z,1.45
2022-12-27T15:07:34.328Z,1.27
2022-12-27T15:10:31.776Z,1.55
2022-12-27T15:13:32.434Z,1.20
2022-12-27T15:16:28.075Z,1.02
2022-12-27T15:22:15.870Z,1.20
2022-12-27T15:25:46.532Z,1.30
2022-12-27T15:28:58.013Z,1.33
2022-12-27T15:31:43.897Z,1.23
2022-12-27T15:34:43.493Z,1.48
2022-12-27T15:37:47.780Z,1.58
2022-12-27T15:40:32.866Z,1.35
2022-12-27T15:43:37.417Z,1.27
2022-12-27T15:46:28.659Z,1.20
2022-12-27T15:49:28.245Z,1.60
2022-12-27T15:54:58.710Z,1.73
2022-12-27T15:58:11.857Z,1.52
2022-12-27T16:00:39.612Z,1.25
2022-12-27T16:03:33.975Z,1.33
2022-12-27T16:06:02.095Z,1.55
2022-12-27T16:08:39.927Z,1.30
2022-12-27T16:11:11.054Z,1.08
2022-12-27T16:13:49.079Z,1.20
2022-12-27T16:16:28.766Z,1.05
2022-12-27T16:19:40.541Z,1.05
2022-12-27T16:22:38.344Z,1.15
2022-12-27T16:25:31.801Z,1.60
2022-12-27T16:28:16.705Z,1.95
2022-12-27T16:30:53.177Z,1.05
2022-12-27T16:33:26.444Z,1.50
2022-12-27T16:36:11.889Z,1.35
2022-12-27T16:39:11.534Z,1.48
2022-12-27T16:41:50.311Z,1.15
2022-12-27T16:44:36.246Z,1.30
2022-12-27T16:47:39.471Z,1.40
2022-12-27T16:50:29.259Z,0.85
2022-12-27T16:53:49.078Z,1.20
2022-12-27T16:56:24.337Z,1.20
2022-12-27T16:58:52.182Z,1.52
2022-12-27T17:01:18.995Z,1.50
2022-12-27T17:03:49.279Z,1.48
2022-12-27T17:06:33.144Z,1.20
2022-12-27T17:09:09.663Z,0.90
2022-12-27T17:11:51.590Z,1.65
2022-12-27T17:14:34.170Z,1.00
2022-12-27T17:17:09.364Z,1.70
2022-12-27T17:20:08.225Z,1.30
2022-12-27T17:22:39.632Z,1.40
2022-12-27T17:25:15.172Z,1.48
2022-12-27T17:28:00.228Z,0.90
2022-12-27T17:30:44.510Z,2.08
2022-12-27T17:33:53.718Z,1.52
2022-12-27T17:36:34.718Z,1.77
2022-12-27T17:39:38.950Z,1.48
2022-12-27T17:43:01.472Z,1.75
2022-12-27T17:46:13.377Z,1.33
2022-12-27T17:48:40.383Z,1.15
2022-12-27T17:51:15.252Z,1.35
2022-12-27T17:54:13.204Z,1.88
2022-12-27T17:57:14.689Z,1.73
2022-12-27T17:59:49.201Z,1.30
2022-12-27T18:02:36.731Z,1.20
2022-12-27T18:05:12.504Z,1.60
2022-12-27T18:07:39.979Z,1.52
2022-12-27T18:10:24.477Z,1.45
2022-12-27T18:13:05.202Z,1.53
2022-12-27T18:15:36.470Z,1.70
2022-12-27T18:18:07.673Z,1.50
2022-12-27T18:20:38.468Z,1.33
2022-12-27T18:23:06.276Z,1.60
2022-12-27T18:25:49.229Z,1.70
2022-12-27T18:28:33.900Z,17.73
2022-12-27T18:31:13.260Z,30.65
2022-12-27T18:33:40.075Z,20.40
2022-12-27T18:36:15.805Z,11.07
2022-12-27T18:38:47.073Z,2.00
2022-12-27T18:41:19.819Z,1.60
2022-12-27T18:43:50.392Z,1.30
2022-12-27T18:46:29.426Z,1.30
2022-12-27T18:48:57.050Z,1.65
2022-12-27T18:51:38.659Z,1.45
2022-12-27T18:54:30.010Z,1.65
2022-12-27T18:56:59.599Z,2.00
2022-12-27T18:59:29.291Z,2.00
2022-12-27T19:02:00.282Z,2.00
2022-12-27T19:04:33.051Z,1.50
2022-12-27T19:07:14.671Z,1.90
2022-12-27T19:09:59.986Z,2.03
2022-12-27T19:15:20.631Z,1.45
2022-12-27T19:17:50.825Z,1.50
2022-12-27T19:20:34.971Z,1.80
2022-12-27T19:23:39.416Z,1.77
2022-12-27T19:26:32.104Z,1.80
2022-12-27T19:29:06.816Z,1.92
2022-12-27T19:31:35.524Z,1.90
2022-12-27T19:34:09.551Z,1.80
2022-12-27T19:36:42.971Z,1.80
2022-12-27T19:39:22.108Z,1.60
2022-12-27T19:41:49.800Z,2.10
2022-12-27T19:44:17.109Z,2.15
2022-12-27T19:46:43.937Z,1.70
2022-12-27T19:51:58.855Z,1.80
2022-12-27T19:54:25.970Z,1.92
2022-12-27T19:56:53.291Z,2.08
2022-12-27T19:59:24.181Z,2.05
2022-12-27T20:01:52.807Z,1.60
2022-12-27T20:04:20.049Z,2.03
2022-12-27T20:06:48.923Z,2.22
2022-12-27T20:09:19.147Z,1.85
2022-12-27T20:11:48.272Z,1.63
2022-12-27T20:14:17.676Z,1.77
2022-12-27T20:16:46.959Z,1.50
2022-12-27T20:19:16.655Z,1.40
2022-12-27T20:21:43.961Z,4.45
2022-12-27T20:24:15.116Z,5.95
2022-12-27T20:26:43.214Z,9.35
2022-12-27T20:29:11.334Z,32.97
2022-12-27T20:31:44.741Z,9.93
2022-12-27T20:34:13.048Z,9.02
2022-12-27T20:36:41.657Z,2.65
2022-12-27T20:39:08.579Z,1.50
2022-12-27T20:41:35.587Z,2.60
2022-12-27T20:44:02.710Z,1.70
2022-12-27T20:46:29.663Z,1.52
2022-12-27T20:48:57.110Z,1.77
2022-12-27T20:51:33.664Z,1.77
2022-12-27T20:54:03.096Z,1.92
2022-12-27T20:56:30.479Z,1.98
2022-12-27T20:58:57.736Z,2.00
2022-12-27T21:01:28.177Z,2.88
2022-12-27T21:03:56.859Z,2.10
2022-12-27T21:06:27.479Z,1.80
2022-12-27T21:08:57.789Z,1.60
2022-12-27T21:11:31.660Z,1.98
2022-12-27T21:14:01.459Z,1.92
2022-12-27T21:16:32.309Z,1.85
2022-12-27T21:19:03.576Z,2.17
2022-12-27T21:21:33.181Z,1.70
2022-12-27T21:24:00.414Z,1.35
2022-12-27T21:26:33.782Z,1.90
2022-12-27T21:29:01.766Z,3.05
2022-12-27T21:31:30.190Z,2.65
2022-12-27T21:33:59.546Z,2.20
2022-12-27T21:36:31.676Z,1.70
2022-12-27T21:38:59.098Z,1.88
2022-12-27T21:41:33.309Z,1.60
2022-12-27T21:44:01.007Z,1.73
2022-12-27T21:46:31.978Z,1.83
2022-12-27T21:49:02.173Z,1.60
2022-12-27T21:51:31.677Z,2.30
2022-12-27T21:53:59.251Z,1.90
2022-12-27T21:56:26.634Z,1.70
2022-12-27T21:58:55.998Z,1.75
2022-12-27T22:01:26.289Z,1.63
2022-12-27T22:03:54.816Z,1.95
2022-12-27T22:06:37.816Z,2.10
2022-12-27T22:09:10.113Z,2.28
2022-12-27T22:11:39.576Z,2.30
2022-12-27T22:14:07.055Z,3.05
2022-12-27T22:16:39.389Z,2.50
2022-12-27T22:19:09.195Z,2.40
2022-12-27T22:21:37.896Z,2.35
2022-12-27T22:24:05.883Z,2.47
2022-12-27T22:26:37.472Z,3.25
2022-12-27T22:29:07.947Z,2.10
2022-12-27T22:31:38.245Z,1.83
2022-12-27T22:34:06.206Z,1.70
2022-12-27T22:36:34.385Z,1.90
2022-12-27T22:39:02.019Z,2.20
2022-12-27T22:41:35.676Z,2.20
2022-12-27T22:44:08.751Z,2.40
2022-12-27T22:47:24.624Z,2.63
2022-12-27T22:49:23.366Z,2.90
2022-12-27T22:51:50.140Z,2.05
2022-12-27T22:54:17.099Z,2.03
2022-12-27T22:56:44.205Z,2.30
2022-12-27T22:59:16.520Z,2.50
2022-12-27T23:01:46.053Z,2.00
2022-12-27T23:04:14.134Z,2.10
2022-12-27T23:06:42.169Z,1.90
2022-12-27T23:09:09.868Z,1.48
2022-12-27T23:11:41.011Z,1.30
2022-12-27T23:14:17.023Z,0.75
2022-12-27T23:16:47.459Z,0.40
2022-12-27T23:19:17.772Z,0.50
2022-12-27T23:21:45.015Z,0.22
2022-12-27T23:24:12.679Z,0.40
2022-12-27T23:26:40.682Z,0.30
2022-12-27T23:29:07.675Z,0.20
2022-12-27T23:31:34.819Z,0.50
2022-12-27T23:34:01.825Z,0.32
2022-12-27T23:36:31.522Z,0.30
2022-12-27T23:38:58.483Z,0.40
2022-12-27T23:41:26.502Z,0.50
2022-12-27T23:43:55.791Z,0.60
2022-12-27T23:46:33.324Z,0.43
2022-12-27T23:49:03.599Z,0.40
2022-12-27T23:51:31.787Z,0.50
2022-12-27T23:53:58.771Z,0.70
2022-12-27T23:56:32.331Z,0.80
2022-12-27T23:59:01.592Z,0.75
